createdAt,value
2022-10-18T00:01:53.329Z,7.55
2022-10-18T00:04:19.857Z,9.63
2022-10-18T00:06:46.313Z,8.65
2022-10-18T00:09:13.122Z,9.15
2022-10-18T00:11:39.793Z,7.50
2022-10-18T00:14:06.358Z,7.47
2022-10-18T00:16:34.190Z,10.23
2022-10-18T00:19:00.801Z,10.35
2022-10-18T00:21:27.722Z,9.68
2022-10-18T00:23:54.475Z,6.38
2022-10-18T00:26:22.874Z,5.28
2022-10-18T00:28:52.039Z,7.22
2022-10-18T00:31:21.597Z,10.23
2022-10-18T00:33:50.985Z,7.50
2022-10-18T00:36:17.459Z,5.80
2022-10-18T00:38:44.408Z,13.52
2022-10-18T00:41:14.198Z,12.15
2022-10-18T00:43:59.261Z,7.82
2022-10-18T00:46:27.268Z,9.13
2022-10-18T00:48:56.430Z,15.98
2022-10-18T00:51:25.546Z,11.23
2022-10-18T00:53:52.222Z,13.50
2022-10-18T00:56:19.754Z,15.85
2022-10-18T00:58:47.686Z,18.05
2022-10-18T01:01:14.598Z,13.93
2022-10-18T01:03:41.233Z,13.93
2022-10-18T01:06:09.585Z,17.38
2022-10-18T01:08:46.963Z,14.85
2022-10-18T01:11:28.227Z,20.27
2022-10-18T01:14:05.812Z,15.13
2022-10-18T01:16:38.087Z,13.98
2022-10-18T01:19:14.729Z,13.50
2022-10-18T01:21:50.097Z,17.50
2022-10-18T01:24:53.103Z,14.13
2022-10-18T01:27:38.538Z,12.48
2022-10-18T01:30:39.370Z,13.98
2022-10-18T01:33:14.968Z,15.93
2022-10-18T01:35:49.229Z,12.32
2022-10-18T01:38:18.637Z,17.35
2022-10-18T01:40:48.260Z,13.93
2022-10-18T01:43:17.010Z,14.80
2022-10-18T01:45:46.427Z,13.50
2022-10-18T01:48:13.911Z,14.52
2022-10-18T01:50:40.698Z,16.63
2022-10-18T01:53:21.604Z,18.20
2022-10-18T01:55:55.367Z,15.80
2022-10-18T01:58:27.829Z,18.92
2022-10-18T02:01:04.179Z,19.98
2022-10-18T02:03:30.645Z,16.33
2022-10-18T02:06:05.670Z,19.90
2022-10-18T02:08:38.408Z,13.43
2022-10-18T02:11:08.538Z,15.32
2022-10-18T02:13:38.643Z,15.50
2022-10-18T02:16:10.399Z,10.23
2022-10-18T02:18:40.789Z,11.95
2022-10-18T02:21:10.653Z,11.23
2022-10-18T02:23:38.750Z,13.27
2022-10-18T02:26:05.932Z,9.93
2022-10-18T02:28:32.495Z,10.02
2022-10-18T02:31:06.595Z,15.43
2022-10-18T02:33:43.309Z,14.75
2022-10-18T02:36:15.294Z,12.75
2022-10-18T02:38:45.295Z,11.13
2022-10-18T02:41:12.127Z,13.65
2022-10-18T02:43:38.596Z,19.17
2022-10-18T02:46:05.765Z,11.68
2022-10-18T02:48:33.573Z,14.10
2022-10-18T02:50:59.990Z,13.77
2022-10-18T02:53:26.560Z,12.13
2022-10-18T02:55:52.955Z,14.02
2022-10-18T02:58:19.411Z,11.90
2022-10-18T03:00:45.859Z,13.30
2022-10-18T03:03:12.301Z,10.80
2022-10-18T03:05:40.060Z,16.13
2022-10-18T03:08:06.474Z,13.30
2022-10-18T03:10:32.907Z,13.45
2022-10-18T03:12:59.471Z,13.85
2022-10-18T03:15:25.914Z,12.90
2022-10-18T03:17:52.360Z,15.55
2022-10-18T03:20:18.803Z,16.65
2022-10-18T03:22:46.607Z,15.52
2022-10-18T03:25:12.997Z,10.52
2022-10-18T03:27:39.483Z,10.05
2022-10-18T03:30:06.882Z,14.15
2022-10-18T03:32:33.623Z,13.68
2022-10-18T03:35:00.248Z,13.68
2022-10-18T03:37:26.702Z,11.00
2022-10-18T03:39:54.452Z,10.43
2022-10-18T03:42:20.979Z,11.88
2022-10-18T03:44:47.420Z,11.25
2022-10-18T03:47:13.858Z,14.70
2022-10-18T03:49:40.318Z,14.93
2022-10-18T03:52:06.802Z,15.55
2022-10-18T03:54:33.210Z,12.57
2022-10-18T03:57:01.068Z,12.60
2022-10-18T03:59:27.674Z,12.57
2022-10-18T04:01:54.198Z,13.60
2022-10-18T04:04:20.796Z,10.65
2022-10-18T04:06:47.264Z,11.25
2022-10-18T04:09:14.188Z,13.25
2022-10-18T04:11:40.706Z,13.13
2022-10-18T04:14:08.613Z,14.57
2022-10-18T04:19:06.416Z,12.88
2022-10-18T04:21:32.848Z,15.40
2022-10-18T04:23:59.345Z,12.50
2022-10-18T04:26:25.827Z,12.10
2022-10-18T04:28:52.329Z,16.25
2022-10-18T04:31:20.122Z,11.38
2022-10-18T04:33:46.574Z,13.07
2022-10-18T04:36:13.033Z,9.20
2022-10-18T04:38:39.480Z,9.25
2022-10-18T04:44:27.753Z,10.40
2022-10-18T04:46:55.500Z,9.82
2022-10-18T04:49:21.918Z,10.20
2022-10-18T04:51:48.378Z,12.07
2022-10-18T04:54:14.881Z,11.52
2022-10-18T04:56:41.323Z,9.85
2022-10-18T04:59:07.762Z,9.15
2022-10-18T05:01:34.228Z,9.27
2022-10-18T05:04:02.055Z,14.05
2022-10-18T05:06:28.463Z,10.93
2022-10-18T05:08:54.974Z,10.30
2022-10-18T05:11:21.405Z,16.48
2022-10-18T05:13:50.114Z,12.32
2022-10-18T05:16:17.484Z,10.63
2022-10-18T05:18:43.952Z,16.55
2022-10-18T05:21:11.731Z,9.18
2022-10-18T05:23:38.401Z,15.27
2022-10-18T05:26:06.421Z,13.32
2022-10-18T05:28:39.189Z,13.75
2022-10-18T05:33:33.715Z,14.93
2022-10-18T05:36:00.461Z,10.00
2022-10-18T05:38:28.331Z,19.77
2022-10-18T05:40:54.780Z,9.55
2022-10-18T05:43:21.187Z,12.77
2022-10-18T05:45:48.518Z,11.32
2022-10-18T05:48:14.945Z,9.18
2022-10-18T05:50:41.386Z,12.45
2022-10-18T05:53:12.507Z,13.15
2022-10-18T05:55:52.433Z,11.43
2022-10-18T05:58:18.845Z,12.48
2022-10-18T06:00:45.335Z,15.68
2022-10-18T06:03:11.767Z,15.60
2022-10-18T06:08:08.007Z,14.38
2022-10-18T06:10:38.785Z,12.18
2022-10-18T06:13:06.659Z,16.25
2022-10-18T06:15:33.094Z,11.60
2022-10-18T06:17:59.524Z,12.93
2022-10-18T06:20:25.964Z,13.00
2022-10-18T06:22:52.569Z,15.82
2022-10-18T06:25:19.029Z,11.60
2022-10-18T06:27:45.469Z,10.88
2022-10-18T06:30:13.480Z,14.32
2022-10-18T06:32:39.940Z,13.38
2022-10-18T06:35:07.265Z,13.02
2022-10-18T06:37:34.080Z,13.93
2022-10-18T06:40:00.939Z,16.85
2022-10-18T06:42:27.517Z,14.90
2022-10-18T06:44:53.982Z,14.43
2022-10-18T06:47:21.755Z,13.23
2022-10-18T06:49:48.222Z,12.05
2022-10-18T06:52:17.040Z,14.40
2022-10-18T06:54:45.450Z,15.90
2022-10-18T06:57:12.041Z,13.02
2022-10-18T06:59:38.471Z,15.30
2022-10-18T07:02:05.004Z,15.95
2022-10-18T07:04:33.123Z,12.73
2022-10-18T07:06:59.518Z,15.07
2022-10-18T07:09:26.034Z,15.38
2022-10-18T07:11:52.487Z,13.90
2022-10-18T07:14:18.910Z,14.05
2022-10-18T07:16:45.380Z,14.27
2022-10-18T07:19:11.857Z,13.50
2022-10-18T07:21:39.788Z,15.02
2022-10-18T07:24:06.558Z,11.38
2022-10-18T07:26:35.938Z,14.98
2022-10-18T07:29:06.601Z,13.05
2022-10-18T07:31:33.494Z,15.65
2022-10-18T07:33:59.997Z,12.05
2022-10-18T07:36:26.846Z,11.35
2022-10-18T07:38:54.630Z,11.23
2022-10-18T07:41:21.197Z,13.77
2022-10-18T07:43:50.096Z,11.40
2022-10-18T07:46:17.608Z,12.52
2022-10-18T07:48:44.177Z,9.38
2022-10-18T07:51:10.937Z,11.65
2022-10-18T07:53:38.254Z,13.65
2022-10-18T07:56:09.595Z,12.63
2022-10-18T07:58:36.232Z,14.15
2022-10-18T08:01:03.129Z,10.38
2022-10-18T08:03:29.661Z,16.13
2022-10-18T08:05:56.145Z,11.05
2022-10-18T08:08:23.524Z,12.55
2022-10-18T08:10:50.484Z,12.70
2022-10-18T08:13:18.724Z,12.18
2022-10-18T08:15:45.368Z,12.13
2022-10-18T08:18:12.502Z,17.42
2022-10-18T08:20:42.788Z,12.25
2022-10-18T08:23:09.397Z,12.75
2022-10-18T08:28:02.201Z,13.85
2022-10-18T08:30:30.094Z,11.55
2022-10-18T08:32:56.498Z,12.93
2022-10-18T08:35:22.912Z,13.98
2022-10-18T08:37:49.490Z,10.90
2022-10-18T08:40:16.381Z,12.40
2022-10-18T08:43:00.518Z,13.15
2022-10-18T08:45:41.975Z,13.55
2022-10-18T08:48:17.777Z,16.35
2022-10-18T08:50:44.624Z,17.88
2022-10-18T08:53:17.696Z,12.75
2022-10-18T08:55:48.760Z,13.32
2022-10-18T08:58:18.835Z,11.93
2022-10-18T09:00:55.635Z,12.93
2022-10-18T09:03:38.562Z,15.55
2022-10-18T09:06:19.835Z,13.93
2022-10-18T09:09:11.224Z,17.58
2022-10-18T09:11:51.420Z,15.55
2022-10-18T09:14:53.717Z,14.27
2022-10-18T09:17:31.315Z,14.52
2022-10-18T09:20:14.335Z,17.17
2022-10-18T09:22:51.745Z,15.10
2022-10-18T09:25:20.014Z,15.98
2022-10-18T09:27:54.770Z,18.10
2022-10-18T09:30:39.490Z,14.13
2022-10-18T09:33:25.923Z,15.05
2022-10-18T09:35:57.160Z,13.85
2022-10-18T09:38:28.581Z,17.23
2022-10-18T09:40:58.445Z,19.77
2022-10-18T09:43:30.427Z,14.55
2022-10-18T09:45:57.729Z,14.93
2022-10-18T09:48:29.207Z,17.23
2022-10-18T09:51:01.810Z,17.23
2022-10-18T09:53:36.258Z,14.60
2022-10-18T09:56:06.110Z,17.20
2022-10-18T09:58:44.076Z,17.33
2022-10-18T10:01:12.877Z,12.57
2022-10-18T10:03:40.093Z,15.25
2022-10-18T10:06:24.348Z,17.80
2022-10-18T10:08:57.637Z,17.88
2022-10-18T10:11:29.395Z,19.50
2022-10-18T10:13:57.544Z,19.20
2022-10-18T10:16:25.821Z,15.05
2022-10-18T10:18:52.992Z,19.20
2022-10-18T10:21:21.493Z,17.15
2022-10-18T10:23:54.481Z,16.17
2022-10-18T10:26:23.237Z,17.83
2022-10-18T10:28:50.213Z,15.95
2022-10-18T10:31:19.148Z,14.93
2022-10-18T10:33:47.093Z,13.75
2022-10-18T10:36:17.532Z,14.05
2022-10-18T10:38:45.392Z,13.02
2022-10-18T10:41:20.900Z,14.27
2022-10-18T10:43:48.932Z,10.82
2022-10-18T10:46:17.512Z,12.48
2022-10-18T10:48:49.648Z,11.57
2022-10-18T10:51:28.353Z,11.27
2022-10-18T10:54:01.203Z,15.60
2022-10-18T10:56:29.717Z,11.77
2022-10-18T10:59:01.500Z,10.98
2022-10-18T11:01:30.785Z,13.40
2022-10-18T11:03:59.779Z,11.35
2022-10-18T11:06:35.223Z,11.40
2022-10-18T11:09:06.165Z,10.60
2022-10-18T11:11:39.464Z,9.55
2022-10-18T11:14:25.877Z,9.13
2022-10-18T11:17:04.208Z,11.82
2022-10-18T11:19:39.682Z,10.93
2022-10-18T11:22:11.906Z,11.97
2022-10-18T11:24:39.672Z,11.32
2022-10-18T11:27:14.484Z,10.13
2022-10-18T11:29:54.364Z,8.50
2022-10-18T11:32:31.185Z,15.55
2022-10-18T11:35:15.714Z,11.35
2022-10-18T11:37:58.229Z,10.15
2022-10-18T11:40:53.899Z,9.68
2022-10-18T11:43:30.108Z,11.35
2022-10-18T11:46:11.027Z,12.45
2022-10-18T11:48:52.018Z,13.63
2022-10-18T11:51:38.670Z,11.02
2022-10-18T11:54:28.894Z,13.52
2022-10-18T11:57:04.961Z,10.77
2022-10-18T11:59:38.162Z,11.65
2022-10-18T12:02:40.874Z,12.85
2022-10-18T12:05:23.134Z,11.27
2022-10-18T12:07:55.353Z,13.70
2022-10-18T12:10:31.730Z,11.55
2022-10-18T12:13:16.322Z,12.65
2022-10-18T12:15:43.984Z,11.63
2022-10-18T12:25:12.511Z,12.40
2022-10-18T12:27:44.046Z,11.95
2022-10-18T12:30:20.534Z,12.57
2022-10-18T12:33:03.386Z,11.55
2022-10-18T12:35:49.931Z,14.80
2022-10-18T12:38:21.404Z,13.55
2022-10-18T12:40:50.907Z,11.05
2022-10-18T12:43:21.045Z,10.25
2022-10-18T12:45:52.852Z,12.00
2022-10-18T12:48:30.278Z,15.35
2022-10-18T12:50:59.687Z,11.02
2022-10-18T12:53:28.023Z,9.40
2022-10-18T12:55:55.396Z,11.07
2022-10-18T12:58:25.472Z,10.60
2022-10-18T13:01:04.465Z,10.98
2022-10-18T13:03:59.460Z,9.25
2022-10-18T13:07:11.968Z,11.60
2022-10-18T13:09:39.910Z,11.77
2022-10-18T13:12:48.129Z,9.88
2022-10-18T13:15:37.400Z,11.10
2022-10-18T13:18:17.512Z,9.82
2022-10-18T13:20:54.538Z,12.07
2022-10-18T13:23:38.158Z,11.02
2022-10-18T13:26:17.469Z,12.30
2022-10-18T13:28:51.588Z,10.95
2022-10-18T13:31:22.580Z,13.32
2022-10-18T13:33:50.839Z,12.45
2022-10-18T13:36:23.663Z,12.32
2022-10-18T13:39:01.248Z,13.93
2022-10-18T13:41:32.721Z,11.30
2022-10-18T13:44:23.857Z,12.48
2022-10-18T13:47:32.489Z,13.75
2022-10-18T13:50:22.130Z,14.27
2022-10-18T13:53:36.966Z,15.38
2022-10-18T13:56:24.622Z,15.73
2022-10-18T13:59:14.338Z,12.98
2022-10-18T14:01:54.794Z,14.30
2022-10-18T14:04:45.202Z,32.22
2022-10-18T14:07:18.073Z,14.35
2022-10-18T14:09:49.998Z,15.75
2022-10-18T14:12:28.375Z,17.80
2022-10-18T14:15:02.333Z,14.02
2022-10-18T14:17:36.059Z,12.85
2022-10-18T14:20:13.413Z,19.02
2022-10-18T14:22:47.716Z,17.52
2022-10-18T14:25:21.881Z,14.35
2022-10-18T14:27:50.944Z,19.35
2022-10-18T14:30:20.904Z,16.65
2022-10-18T14:32:49.383Z,15.75
2022-10-18T14:35:31.981Z,14.40
2022-10-18T14:40:31.558Z,16.27
2022-10-18T14:43:02.516Z,16.75
2022-10-18T14:45:29.032Z,18.35
2022-10-18T14:47:55.478Z,17.35
2022-10-18T14:50:30.266Z,16.50
2022-10-18T14:52:57.260Z,19.05
2022-10-18T14:55:26.988Z,16.00
2022-10-18T14:57:53.561Z,15.88
2022-10-18T15:02:54.473Z,23.25
2022-10-18T15:05:23.577Z,16.45
2022-10-18T15:07:51.935Z,17.77
2022-10-18T15:10:21.951Z,20.33
2022-10-18T15:13:08.765Z,19.85
2022-10-18T15:15:36.474Z,15.20
2022-10-18T15:18:03.641Z,17.30
2022-10-18T15:20:31.666Z,18.60
2022-10-18T15:23:21.331Z,18.35
2022-10-18T15:25:48.261Z,16.48
2022-10-18T15:28:27.362Z,18.15
2022-10-18T15:30:54.029Z,19.55
2022-10-18T15:33:23.930Z,22.02
2022-10-18T15:35:52.036Z,20.65
2022-10-18T15:38:25.895Z,18.50
2022-10-18T15:40:53.214Z,18.80
2022-10-18T15:43:43.634Z,20.60
2022-10-18T15:46:30.306Z,21.13
2022-10-18T15:49:18.682Z,16.17
2022-10-18T15:51:48.713Z,19.95
2022-10-18T15:54:18.316Z,20.02
2022-10-18T15:56:45.747Z,18.17
2022-10-18T15:59:23.912Z,26.17
2022-10-18T16:01:50.604Z,17.33
2022-10-18T16:04:20.565Z,19.63
2022-10-18T16:06:47.032Z,18.73
2022-10-18T16:09:17.163Z,19.05
2022-10-18T16:11:44.162Z,18.85
2022-10-18T16:14:10.590Z,17.83
2022-10-18T16:16:40.105Z,20.95
2022-10-18T16:19:06.933Z,13.60
2022-10-18T16:21:35.523Z,19.15
2022-10-18T16:24:02.290Z,20.20
2022-10-18T16:26:29.321Z,22.08
2022-10-18T16:28:56.562Z,17.08
2022-10-18T16:31:25.510Z,20.50
2022-10-18T16:33:54.381Z,18.55
2022-10-18T16:36:22.680Z,18.23
2022-10-18T16:38:50.050Z,18.13
2022-10-18T16:41:17.165Z,17.48
2022-10-18T16:43:44.701Z,18.15
2022-10-18T16:46:16.302Z,16.73
2022-10-18T16:48:43.504Z,19.33
2022-10-18T16:51:11.827Z,14.43
2022-10-18T16:53:38.466Z,18.83
2022-10-18T16:56:11.412Z,18.52
2022-10-18T16:58:37.901Z,18.48
2022-10-18T17:01:06.799Z,16.25
2022-10-18T17:03:36.158Z,23.75
2022-10-18T17:06:02.638Z,17.80
2022-10-18T17:08:30.330Z,20.92
2022-10-18T17:10:58.488Z,25.27
2022-10-18T17:13:26.240Z,25.52
2022-10-18T17:15:53.286Z,23.48
2022-10-18T17:18:21.745Z,28.52
2022-10-18T17:20:49.570Z,24.40
2022-10-18T17:23:16.443Z,24.83
2022-10-18T17:25:57.534Z,31.55
2022-10-18T17:28:31.628Z,23.58
2022-10-18T17:30:58.216Z,22.75
2022-10-18T17:33:24.707Z,19.40
2022-10-18T17:35:51.184Z,27.17
2022-10-18T17:38:17.691Z,23.73
2022-10-18T17:40:45.679Z,18.00
2022-10-18T17:43:12.177Z,22.50
2022-10-18T17:45:46.269Z,20.05
2022-10-18T17:48:12.681Z,19.20
2022-10-18T17:50:39.938Z,16.20
2022-10-18T17:53:06.494Z,15.05
2022-10-18T17:55:33.964Z,16.63
2022-10-18T17:58:01.920Z,17.00
2022-10-18T18:00:28.420Z,14.15
2022-10-18T18:02:56.683Z,13.52
2022-10-18T18:05:23.318Z,16.05
2022-10-18T18:07:49.873Z,14.57
2022-10-18T18:10:16.362Z,12.13
2022-10-18T18:12:42.952Z,15.18
2022-10-18T18:15:11.094Z,15.60
2022-10-18T18:17:55.974Z,15.05
2022-10-18T18:20:23.042Z,15.02
2022-10-18T18:22:50.754Z,12.98
2022-10-18T18:25:17.394Z,15.05
2022-10-18T18:27:43.868Z,18.45
2022-10-18T18:30:11.898Z,19.27
2022-10-18T18:32:38.367Z,22.60
2022-10-18T18:35:05.676Z,24.40
2022-10-18T18:37:32.265Z,21.13
2022-10-18T18:39:58.697Z,22.67
2022-10-18T18:42:25.215Z,23.25
2022-10-18T18:44:51.676Z,23.05
2022-10-18T18:47:19.583Z,21.80
2022-10-18T18:49:46.023Z,20.67
2022-10-18T18:52:12.477Z,27.52
2022-10-18T18:54:38.928Z,21.83
2022-10-18T18:57:05.392Z,22.90
2022-10-18T18:59:31.840Z,18.70
2022-10-18T19:01:58.302Z,24.95
2022-10-18T19:04:26.096Z,21.73
2022-10-18T19:06:52.523Z,20.90
2022-10-18T19:09:21.737Z,23.05
2022-10-18T19:11:49.529Z,19.70
2022-10-18T19:14:16.291Z,22.15
2022-10-18T19:16:46.592Z,20.15
2022-10-18T19:19:15.192Z,20.20
2022-10-18T19:21:44.645Z,16.00
2022-10-18T19:24:11.661Z,23.45
2022-10-18T19:26:40.768Z,22.17
2022-10-18T19:29:09.597Z,20.60
2022-10-18T19:31:36.878Z,19.20
2022-10-18T19:34:04.559Z,14.43
2022-10-18T19:36:31.732Z,15.43
2022-10-18T19:38:59.834Z,16.08
2022-10-18T19:41:26.797Z,13.75
2022-10-18T19:43:53.333Z,21.05
2022-10-18T19:46:19.838Z,13.63
2022-10-18T19:48:46.322Z,18.42
2022-10-18T19:51:17.366Z,17.42
2022-10-18T19:53:47.720Z,14.32
2022-10-18T19:56:18.296Z,18.75
2022-10-18T19:58:45.287Z,18.58
2022-10-18T20:01:11.873Z,17.42
2022-10-18T20:03:38.335Z,15.95
2022-10-18T20:06:04.971Z,19.45
2022-10-18T20:08:33.414Z,14.50
2022-10-18T20:11:00.844Z,15.05
2022-10-18T20:13:28.916Z,13.07
2022-10-18T20:15:55.399Z,14.48
2022-10-18T20:18:21.905Z,22.88
2022-10-18T20:20:49.500Z,10.98
2022-10-18T20:23:16.277Z,13.55
2022-10-18T20:25:43.262Z,14.30
2022-10-18T20:28:12.858Z,14.63
2022-10-18T20:30:40.623Z,15.85
2022-10-18T20:33:07.028Z,22.70
2022-10-18T20:35:33.500Z,17.17
2022-10-18T20:37:59.933Z,15.90
2022-10-18T20:40:26.395Z,10.02
2022-10-18T20:42:54.381Z,14.82
2022-10-18T20:45:20.834Z,16.00
2022-10-18T20:47:48.701Z,13.27
2022-10-18T20:50:17.474Z,17.58
2022-10-18T20:52:43.907Z,13.43
2022-10-18T20:55:10.357Z,14.77
2022-10-18T20:57:36.829Z,14.50
2022-10-18T21:00:04.545Z,11.73
2022-10-18T21:02:30.959Z,11.00
2022-10-18T21:04:58.706Z,13.73
2022-10-18T21:07:25.164Z,15.27
2022-10-18T21:09:51.638Z,9.90
2022-10-18T21:12:18.147Z,17.70
2022-10-18T21:14:44.545Z,13.82
2022-10-18T21:17:11.042Z,14.45
2022-10-18T21:19:37.508Z,12.75
2022-10-18T21:22:05.493Z,13.10
2022-10-18T21:24:32.041Z,13.68
2022-10-18T21:26:58.522Z,16.35
2022-10-18T21:29:25.006Z,18.25
2022-10-18T21:31:53.928Z,15.57
2022-10-18T21:34:20.457Z,10.23
2022-10-18T21:36:51.761Z,12.85
2022-10-18T21:39:22.011Z,13.00
2022-10-18T21:41:49.291Z,16.90
2022-10-18T21:44:17.015Z,11.82
2022-10-18T21:46:43.728Z,14.45
2022-10-18T21:49:11.240Z,18.50
2022-10-18T21:51:38.235Z,9.35
2022-10-18T21:54:06.528Z,12.98
2022-10-18T21:56:35.274Z,11.10
2022-10-18T21:59:02.046Z,13.60
2022-10-18T22:01:30.717Z,18.13
2022-10-18T22:03:57.328Z,15.93
2022-10-18T22:06:24.974Z,10.95
2022-10-18T22:08:53.842Z,12.63
2022-10-18T22:11:23.701Z,10.68
2022-10-18T22:13:51.821Z,14.77
2022-10-18T22:16:18.815Z,14.60
2022-10-18T22:18:46.610Z,11.23
2022-10-18T22:21:14.862Z,10.20
2022-10-18T22:23:43.597Z,8.77
2022-10-18T22:26:12.265Z,13.27
2022-10-18T22:28:39.396Z,9.13
2022-10-18T22:31:14.202Z,11.52
2022-10-18T22:33:40.654Z,9.82
2022-10-18T22:36:07.344Z,9.00
2022-10-18T22:38:33.848Z,13.88
2022-10-18T22:41:03.941Z,8.82
2022-10-18T22:43:32.127Z,10.93
2022-10-18T22:46:00.225Z,9.07
2022-10-18T22:48:28.162Z,7.78
2022-10-18T22:50:54.723Z,17.42
2022-10-18T22:53:21.454Z,17.15
2022-10-18T22:55:48.061Z,10.88
2022-10-18T22:58:14.530Z,14.77
2022-10-18T23:00:41.292Z,12.77
2022-10-18T23:03:08.139Z,20.38
2022-10-18T23:05:38.134Z,16.92
2022-10-18T23:08:04.994Z,9.30
2022-10-18T23:10:31.435Z,12.75
2022-10-18T23:12:57.901Z,9.63
2022-10-18T23:15:24.429Z,8.45
2022-10-18T23:17:50.892Z,13.95
2022-10-18T23:20:17.512Z,9.90
2022-10-18T23:22:45.349Z,12.65
2022-10-18T23:25:11.807Z,11.85
2022-10-18T23:27:38.292Z,10.77
2022-10-18T23:30:05.775Z,12.18
2022-10-18T23:32:32.579Z,11.15
2022-10-18T23:34:59.310Z,5.43
2022-10-18T23:37:25.753Z,9.13
2022-10-18T23:39:53.541Z,9.48
2022-10-18T23:42:19.989Z,14.50
2022-10-18T23:44:46.563Z,9.95
2022-10-18T23:47:13.026Z,6.97
2022-10-18T23:49:39.453Z,7.50
2022-10-18T23:52:05.933Z,9.50
2022-10-18T23:54:32.404Z,10.80
2022-10-18T23:57:00.235Z,12.90
2022-10-18T23:59:26.842Z,10.40
